sensor_id;sensor_type;location;lat;lon;timestamp;P1;durP1;ratioP1;P2;durP2;ratioP2
13801;SDS011;6972;51.518;6.918;2023-08-20T00:00:16;5.30;;;3.80;;
13801;SDS011;6972;51.518;6.918;2023-08-20T00:02:43;4.90;;;3.65;;
13801;SDS011;6972;51.518;6.918;2023-08-20T00:05:11;7.03;;;3.85;;
13801;SDS011;6972;51.518;6.918;2023-08-20T00:07:37;7.93;;;4.30;;
13801;SDS011;6972;51.518;6.918;2023-08-20T00:10:03;5.68;;;4.10;;
13801;SDS011;6972;51.518;6.918;2023-08-20T00:12:30;8.85;;;4.25;;
13801;SDS011;6972;51.518;6.918;2023-08-20T00:15:00;7.07;;;4.50;;
13801;SDS011;6972;51.518;6.918;2023-08-20T00:17:36;8.65;;;3.90;;
13801;SDS011;6972;51.518;6.918;2023-08-20T00:20:03;7.35;;;4.75;;
13801;SDS011;6972;51.518;6.918;2023-08-20T00:22:37;6.82;;;4.47;;
13801;SDS011;6972;51.518;6.918;2023-08-20T00:25:04;7.90;;;4.50;;
13801;SDS011;6972;51.518;6.918;2023-08-20T00:27:30;5.43;;;4.20;;
13801;SDS011;6972;51.518;6.918;2023-08-20T00:29:56;7.05;;;4.70;;
13801;SDS011;6972;51.518;6.918;2023-08-20T00:32:22;6.93;;;4.40;;
13801;SDS011;6972;51.518;6.918;2023-08-20T00:34:48;6.15;;;4.47;;
13801;SDS011;6972;51.518;6.918;2023-08-20T00:37:14;9.18;;;4.80;;
13801;SDS011;6972;51.518;6.918;2023-08-20T00:39:41;6.30;;;4.65;;
13801;SDS011;6972;51.518;6.918;2023-08-20T00:42:10;8.05;;;4.88;;
13801;SDS011;6972;51.518;6.918;2023-08-20T00:44:39;8.80;;;5.03;;
13801;SDS011;6972;51.518;6.918;2023-08-20T00:47:06;6.38;;;4.70;;
13801;SDS011;6972;51.518;6.918;2023-08-20T00:49:33;5.55;;;4.18;;
13801;SDS011;6972;51.518;6.918;2023-08-20T00:51:59;7.97;;;5.05;;
13801;SDS011;6972;51.518;6.918;2023-08-20T00:54:25;8.52;;;4.35;;
13801;SDS011;6972;51.518;6.918;2023-08-20T00:56:52;6.47;;;4.63;;
13801;SDS011;6972;51.518;6.918;2023-08-20T00:59:18;7.57;;;4.40;;
13801;SDS011;6972;51.518;6.918;2023-08-20T01:01:44;8.13;;;4.85;;
13801;SDS011;6972;51.518;6.918;2023-08-20T01:04:10;9.23;;;4.85;;
13801;SDS011;6972;51.518;6.918;2023-08-20T01:09:08;9.35;;;5.35;;
13801;SDS011;6972;51.518;6.918;2023-08-20T01:11:37;6.53;;;5.00;;
13801;SDS011;6972;51.518;6.918;2023-08-20T01:14:14;7.47;;;5.35;;
13801;SDS011;6972;51.518;6.918;2023-08-20T01:16:41;10.73;;;6.40;;
13801;SDS011;6972;51.518;6.918;2023-08-20T01:19:07;10.95;;;6.40;;
13801;SDS011;6972;51.518;6.918;2023-08-20T01:21:39;8.57;;;5.93;;
13801;SDS011;6972;51.518;6.918;2023-08-20T01:29:11;11.90;;;6.50;;
13801;SDS011;6972;51.518;6.918;2023-08-20T01:31:38;7.00;;;5.97;;
13801;SDS011;6972;51.518;6.918;2023-08-20T01:34:04;11.35;;;6.10;;
13801;SDS011;6972;51.518;6.918;2023-08-20T01:36:30;8.35;;;6.35;;
13801;SDS011;6972;51.518;6.918;2023-08-20T01:38:56;8.52;;;5.90;;
13801;SDS011;6972;51.518;6.918;2023-08-20T01:41:22;11.13;;;6.45;;
13801;SDS011;6972;51.518;6.918;2023-08-20T01:43:48;6.70;;;6.00;;
13801;SDS011;6972;51.518;6.918;2023-08-20T01:46:14;8.88;;;6.40;;
13801;SDS011;6972;51.518;6.918;2023-08-20T01:48:41;9.02;;;6.40;;
13801;SDS011;6972;51.518;6.918;2023-08-20T01:51:07;11.30;;;6.45;;
13801;SDS011;6972;51.518;6.918;2023-08-20T01:53:33;9.73;;;6.63;;
13801;SDS011;6972;51.518;6.918;2023-08-20T01:55:59;7.85;;;6.57;;
13801;SDS011;6972;51.518;6.918;2023-08-20T01:58:25;10.30;;;6.38;;
13801;SDS011;6972;51.518;6.918;2023-08-20T02:00:51;8.70;;;6.57;;
13801;SDS011;6972;51.518;6.918;2023-08-20T02:03:17;10.75;;;6.70;;
13801;SDS011;6972;51.518;6.918;2023-08-20T02:05:43;10.55;;;6.28;;
13801;SDS011;6972;51.518;6.918;2023-08-20T02:08:09;10.68;;;6.70;;
13801;SDS011;6972;51.518;6.918;2023-08-20T02:10:39;9.52;;;6.55;;
13801;SDS011;6972;51.518;6.918;2023-08-20T02:13:05;15.27;;;6.63;;
13801;SDS011;6972;51.518;6.918;2023-08-20T02:15:32;9.35;;;6.50;;
13801;SDS011;6972;51.518;6.918;2023-08-20T02:17:58;8.45;;;6.25;;
13801;SDS011;6972;51.518;6.918;2023-08-20T02:20:26;9.82;;;6.63;;
13801;SDS011;6972;51.518;6.918;2023-08-20T02:22:52;9.88;;;7.30;;
13801;SDS011;6972;51.518;6.918;2023-08-20T02:25:18;8.00;;;6.20;;
13801;SDS011;6972;51.518;6.918;2023-08-20T02:27:44;8.23;;;6.28;;
13801;SDS011;6972;51.518;6.918;2023-08-20T02:30:10;11.10;;;7.43;;
13801;SDS011;6972;51.518;6.918;2023-08-20T02:32:38;10.30;;;6.95;;
13801;SDS011;6972;51.518;6.918;2023-08-20T02:35:04;8.90;;;6.40;;
13801;SDS011;6972;51.518;6.918;2023-08-20T02:37:31;8.98;;;6.35;;
13801;SDS011;6972;51.518;6.918;2023-08-20T02:39:57;9.85;;;6.72;;
13801;SDS011;6972;51.518;6.918;2023-08-20T02:42:23;9.73;;;6.05;;
13801;SDS011;6972;51.518;6.918;2023-08-20T02:44:49;9.73;;;5.43;;
13801;SDS011;6972;51.518;6.918;2023-08-20T02:47:15;9.80;;;6.00;;
13801;SDS011;6972;51.518;6.918;2023-08-20T02:49:41;9.25;;;6.10;;
13801;SDS011;6972;51.518;6.918;2023-08-20T02:52:08;10.27;;;6.03;;
13801;SDS011;6972;51.518;6.918;2023-08-20T02:54:34;8.63;;;6.13;;
13801;SDS011;6972;51.518;6.918;2023-08-20T02:57:00;11.65;;;6.70;;
13801;SDS011;6972;51.518;6.918;2023-08-20T02:59:26;7.82;;;6.15;;
13801;SDS011;6972;51.518;6.918;2023-08-20T03:01:52;10.85;;;7.60;;
13801;SDS011;6972;51.518;6.918;2023-08-20T03:04:18;8.77;;;6.55;;
13801;SDS011;6972;51.518;6.918;2023-08-20T03:06:44;9.40;;;6.80;;
13801;SDS011;6972;51.518;6.918;2023-08-20T03:09:10;8.38;;;6.93;;
13801;SDS011;6972;51.518;6.918;2023-08-20T03:11:36;11.07;;;6.47;;
13801;SDS011;6972;51.518;6.918;2023-08-20T03:14:02;8.73;;;7.13;;
13801;SDS011;6972;51.518;6.918;2023-08-20T03:16:28;12.60;;;7.63;;
13801;SDS011;6972;51.518;6.918;2023-08-20T03:18:54;10.73;;;7.32;;
13801;SDS011;6972;51.518;6.918;2023-08-20T03:21:20;12.52;;;8.38;;
13801;SDS011;6972;51.518;6.918;2023-08-20T03:23:46;21.13;;;8.55;;
13801;SDS011;6972;51.518;6.918;2023-08-20T03:26:13;11.45;;;7.70;;
13801;SDS011;6972;51.518;6.918;2023-08-20T03:28:39;10.40;;;7.75;;
13801;SDS011;6972;51.518;6.918;2023-08-20T03:31:05;11.98;;;7.57;;
13801;SDS011;6972;51.518;6.918;2023-08-20T03:33:31;11.90;;;8.10;;
13801;SDS011;6972;51.518;6.918;2023-08-20T03:35:57;12.82;;;8.30;;
13801;SDS011;6972;51.518;6.918;2023-08-20T03:38:26;15.18;;;8.13;;
13801;SDS011;6972;51.518;6.918;2023-08-20T03:40:52;12.48;;;8.48;;
13801;SDS011;6972;51.518;6.918;2023-08-20T03:43:18;10.55;;;8.00;;
13801;SDS011;6972;51.518;6.918;2023-08-20T03:45:44;13.38;;;7.82;;
13801;SDS011;6972;51.518;6.918;2023-08-20T03:48:10;9.35;;;7.53;;
13801;SDS011;6972;51.518;6.918;2023-08-20T03:50:37;16.58;;;9.00;;
13801;SDS011;6972;51.518;6.918;2023-08-20T03:53:03;11.90;;;8.40;;
13801;SDS011;6972;51.518;6.918;2023-08-20T03:55:29;12.20;;;8.40;;
13801;SDS011;6972;51.518;6.918;2023-08-20T03:57:55;12.98;;;7.45;;
13801;SDS011;6972;51.518;6.918;2023-08-20T04:00:21;17.83;;;9.00;;
13801;SDS011;6972;51.518;6.918;2023-08-20T04:02:47;12.88;;;8.30;;
13801;SDS011;6972;51.518;6.918;2023-08-20T04:05:13;12.60;;;8.13;;
13801;SDS011;6972;51.518;6.918;2023-08-20T04:07:39;11.30;;;7.75;;
13801;SDS011;6972;51.518;6.918;2023-08-20T04:10:07;11.32;;;8.35;;
13801;SDS011;6972;51.518;6.918;2023-08-20T04:12:34;16.25;;;8.05;;
13801;SDS011;6972;51.518;6.918;2023-08-20T04:15:00;14.65;;;7.95;;
13801;SDS011;6972;51.518;6.918;2023-08-20T04:17:26;11.05;;;7.75;;
13801;SDS011;6972;51.518;6.918;2023-08-20T04:19:52;13.38;;;8.75;;
13801;SDS011;6972;51.518;6.918;2023-08-20T04:22:18;14.57;;;7.93;;
13801;SDS011;6972;51.518;6.918;2023-08-20T04:24:44;15.02;;;8.48;;
13801;SDS011;6972;51.518;6.918;2023-08-20T04:27:10;12.15;;;7.65;;
13801;SDS011;6972;51.518;6.918;2023-08-20T04:29:36;11.05;;;7.03;;
13801;SDS011;6972;51.518;6.918;2023-08-20T04:32:02;11.13;;;7.28;;
13801;SDS011;6972;51.518;6.918;2023-08-20T04:34:29;11.73;;;8.13;;
13801;SDS011;6972;51.518;6.918;2023-08-20T04:36:55;11.85;;;7.68;;
13801;SDS011;6972;51.518;6.918;2023-08-20T04:39:22;11.75;;;7.75;;
13801;SDS011;6972;51.518;6.918;2023-08-20T04:41:48;9.75;;;7.35;;
13801;SDS011;6972;51.518;6.918;2023-08-20T04:44:14;11.98;;;7.75;;
13801;SDS011;6972;51.518;6.918;2023-08-20T04:46:40;13.50;;;7.40;;
13801;SDS011;6972;51.518;6.918;2023-08-20T04:49:06;9.88;;;7.22;;
13801;SDS011;6972;51.518;6.918;2023-08-20T04:51:36;11.02;;;8.70;;
13801;SDS011;6972;51.518;6.918;2023-08-20T04:54:02;13.85;;;8.30;;
13801;SDS011;6972;51.518;6.918;2023-08-20T04:56:28;10.63;;;7.38;;
13801;SDS011;6972;51.518;6.918;2023-08-20T04:58:54;10.30;;;7.72;;
13801;SDS011;6972;51.518;6.918;2023-08-20T05:01:20;12.82;;;7.78;;
13801;SDS011;6972;51.518;6.918;2023-08-20T05:03:46;13.30;;;8.07;;
13801;SDS011;6972;51.518;6.918;2023-08-20T05:06:12;11.80;;;8.18;;
13801;SDS011;6972;51.518;6.918;2023-08-20T05:08:38;11.43;;;7.22;;
13801;SDS011;6972;51.518;6.918;2023-08-20T05:11:04;10.85;;;6.95;;
13801;SDS011;6972;51.518;6.918;2023-08-20T05:13:30;11.40;;;7.65;;
13801;SDS011;6972;51.518;6.918;2023-08-20T05:15:56;11.73;;;8.05;;
13801;SDS011;6972;51.518;6.918;2023-08-20T05:18:22;14.15;;;8.85;;
13801;SDS011;6972;51.518;6.918;2023-08-20T05:20:48;10.02;;;8.13;;
13801;SDS011;6972;51.518;6.918;2023-08-20T05:23:14;13.25;;;8.13;;
13801;SDS011;6972;51.518;6.918;2023-08-20T05:25:40;11.27;;;8.57;;
13801;SDS011;6972;51.518;6.918;2023-08-20T05:28:07;11.88;;;8.85;;
13801;SDS011;6972;51.518;6.918;2023-08-20T05:30:36;13.95;;;9.60;;
13801;SDS011;6972;51.518;6.918;2023-08-20T05:33:02;14.15;;;9.68;;
13801;SDS011;6972;51.518;6.918;2023-08-20T05:35:28;16.70;;;9.98;;
13801;SDS011;6972;51.518;6.918;2023-08-20T05:37:54;15.73;;;9.45;;
13801;SDS011;6972;51.518;6.918;2023-08-20T05:40:20;13.18;;;10.85;;
13801;SDS011;6972;51.518;6.918;2023-08-20T05:42:46;16.95;;;11.57;;
13801;SDS011;6972;51.518;6.918;2023-08-20T05:45:12;24.52;;;15.25;;
13801;SDS011;6972;51.518;6.918;2023-08-20T05:47:38;24.77;;;16.08;;
13801;SDS011;6972;51.518;6.918;2023-08-20T05:50:04;28.45;;;17.67;;
13801;SDS011;6972;51.518;6.918;2023-08-20T05:52:31;30.35;;;18.33;;
13801;SDS011;6972;51.518;6.918;2023-08-20T05:54:57;28.63;;;18.63;;
13801;SDS011;6972;51.518;6.918;2023-08-20T05:57:23;29.83;;;17.50;;
13801;SDS011;6972;51.518;6.918;2023-08-20T05:59:49;29.42;;;19.67;;
13801;SDS011;6972;51.518;6.918;2023-08-20T06:02:15;29.08;;;18.27;;
13801;SDS011;6972;51.518;6.918;2023-08-20T06:04:43;27.48;;;18.35;;
13801;SDS011;6972;51.518;6.918;2023-08-20T06:07:09;25.65;;;18.45;;
13801;SDS011;6972;51.518;6.918;2023-08-20T06:09:35;23.77;;;16.90;;
13801;SDS011;6972;51.518;6.918;2023-08-20T06:12:01;27.10;;;18.50;;
13801;SDS011;6972;51.518;6.918;2023-08-20T06:14:27;25.02;;;17.33;;
13801;SDS011;6972;51.518;6.918;2023-08-20T06:16:53;26.33;;;16.77;;
13801;SDS011;6972;51.518;6.918;2023-08-20T06:19:19;26.92;;;16.27;;
13801;SDS011;6972;51.518;6.918;2023-08-20T06:21:45;26.15;;;18.02;;
13801;SDS011;6972;51.518;6.918;2023-08-20T06:24:11;23.63;;;17.33;;
13801;SDS011;6972;51.518;6.918;2023-08-20T06:26:37;25.33;;;17.42;;
13801;SDS011;6972;51.518;6.918;2023-08-20T06:29:03;26.35;;;17.98;;
13801;SDS011;6972;51.518;6.918;2023-08-20T06:31:30;24.30;;;17.67;;
13801;SDS011;6972;51.518;6.918;2023-08-20T06:33:56;27.30;;;17.38;;
13801;SDS011;6972;51.518;6.918;2023-08-20T06:36:22;26.85;;;17.42;;
13801;SDS011;6972;51.518;6.918;2023-08-20T06:38:48;25.90;;;17.17;;
13801;SDS011;6972;51.518;6.918;2023-08-20T06:41:14;28.85;;;16.80;;
13801;SDS011;6972;51.518;6.918;2023-08-20T06:43:40;23.88;;;17.33;;
13801;SDS011;6972;51.518;6.918;2023-08-20T06:46:06;28.77;;;17.77;;
13801;SDS011;6972;51.518;6.918;2023-08-20T06:48:32;25.58;;;18.33;;
13801;SDS011;6972;51.518;6.918;2023-08-20T06:50:58;25.90;;;17.58;;
13801;SDS011;6972;51.518;6.918;2023-08-20T06:53:24;24.70;;;17.75;;
13801;SDS011;6972;51.518;6.918;2023-08-20T06:55:50;29.73;;;18.33;;
13801;SDS011;6972;51.518;6.918;2023-08-20T06:58:16;23.27;;;16.83;;
13801;SDS011;6972;51.518;6.918;2023-08-20T07:00:42;27.38;;;16.75;;
13801;SDS011;6972;51.518;6.918;2023-08-20T07:03:08;27.83;;;18.35;;
13801;SDS011;6972;51.518;6.918;2023-08-20T07:05:34;26.92;;;17.92;;
13801;SDS011;6972;51.518;6.918;2023-08-20T07:08:00;25.58;;;18.50;;
13801;SDS011;6972;51.518;6.918;2023-08-20T07:10:26;22.67;;;16.33;;
13801;SDS011;6972;51.518;6.918;2023-08-20T07:12:52;24.95;;;18.02;;
13801;SDS011;6972;51.518;6.918;2023-08-20T07:15:18;27.58;;;19.05;;
13801;SDS011;6972;51.518;6.918;2023-08-20T07:17:44;25.35;;;18.48;;
13801;SDS011;6972;51.518;6.918;2023-08-20T07:20:11;28.55;;;19.05;;
13801;SDS011;6972;51.518;6.918;2023-08-20T07:22:37;31.27;;;19.65;;
13801;SDS011;6972;51.518;6.918;2023-08-20T07:25:03;22.80;;;16.40;;
13801;SDS011;6972;51.518;6.918;2023-08-20T07:27:29;23.15;;;17.67;;
13801;SDS011;6972;51.518;6.918;2023-08-20T07:29:55;29.73;;;19.98;;
13801;SDS011;6972;51.518;6.918;2023-08-20T07:32:21;31.30;;;19.92;;
13801;SDS011;6972;51.518;6.918;2023-08-20T07:34:47;27.92;;;19.48;;
13801;SDS011;6972;51.518;6.918;2023-08-20T07:37:13;28.92;;;19.40;;
13801;SDS011;6972;51.518;6.918;2023-08-20T07:39:39;28.98;;;18.58;;
13801;SDS011;6972;51.518;6.918;2023-08-20T07:42:05;27.65;;;17.77;;
13801;SDS011;6972;51.518;6.918;2023-08-20T07:44:31;30.52;;;19.27;;
13801;SDS011;6972;51.518;6.918;2023-08-20T07:46:57;26.65;;;17.17;;
13801;SDS011;6972;51.518;6.918;2023-08-20T07:49:23;44.70;;;31.85;;
13801;SDS011;6972;51.518;6.918;2023-08-20T07:51:49;27.15;;;18.60;;
13801;SDS011;6972;51.518;6.918;2023-08-20T07:54:17;22.98;;;15.88;;
13801;SDS011;6972;51.518;6.918;2023-08-20T07:56:43;25.73;;;17.73;;
13801;SDS011;6972;51.518;6.918;2023-08-20T07:59:09;24.70;;;16.92;;
13801;SDS011;6972;51.518;6.918;2023-08-20T08:01:35;22.75;;;15.68;;
13801;SDS011;6972;51.518;6.918;2023-08-20T08:04:01;20.60;;;15.32;;
13801;SDS011;6972;51.518;6.918;2023-08-20T08:06:27;22.10;;;15.88;;
13801;SDS011;6972;51.518;6.918;2023-08-20T08:08:54;19.13;;;13.48;;
13801;SDS011;6972;51.518;6.918;2023-08-20T08:11:20;19.58;;;13.02;;
13801;SDS011;6972;51.518;6.918;2023-08-20T08:13:46;22.35;;;14.85;;
13801;SDS011;6972;51.518;6.918;2023-08-20T08:16:12;16.05;;;11.50;;
13801;SDS011;6972;51.518;6.918;2023-08-20T08:18:38;17.80;;;13.40;;
13801;SDS011;6972;51.518;6.918;2023-08-20T08:21:04;18.70;;;13.50;;
13801;SDS011;6972;51.518;6.918;2023-08-20T08:23:30;17.33;;;13.18;;
13801;SDS011;6972;51.518;6.918;2023-08-20T08:25:56;20.98;;;14.80;;
13801;SDS011;6972;51.518;6.918;2023-08-20T08:28:22;19.35;;;12.52;;
13801;SDS011;6972;51.518;6.918;2023-08-20T08:30:48;17.17;;;11.52;;
13801;SDS011;6972;51.518;6.918;2023-08-20T08:33:14;18.75;;;12.93;;
13801;SDS011;6972;51.518;6.918;2023-08-20T08:35:40;14.02;;;11.52;;
13801;SDS011;6972;51.518;6.918;2023-08-20T08:38:06;14.13;;;11.15;;
13801;SDS011;6972;51.518;6.918;2023-08-20T08:40:33;14.95;;;10.35;;
13801;SDS011;6972;51.518;6.918;2023-08-20T08:42:59;12.77;;;9.50;;
13801;SDS011;6972;51.518;6.918;2023-08-20T08:45:26;13.57;;;8.68;;
13801;SDS011;6972;51.518;6.918;2023-08-20T08:47:52;12.88;;;8.98;;
13801;SDS011;6972;51.518;6.918;2023-08-20T08:50:20;10.00;;;8.55;;
13801;SDS011;6972;51.518;6.918;2023-08-20T08:52:46;11.27;;;8.65;;
13801;SDS011;6972;51.518;6.918;2023-08-20T08:55:13;12.43;;;9.30;;
13801;SDS011;6972;51.518;6.918;2023-08-20T08:57:39;12.27;;;8.73;;
13801;SDS011;6972;51.518;6.918;2023-08-20T09:00:05;12.15;;;8.07;;
13801;SDS011;6972;51.518;6.918;2023-08-20T09:02:32;12.60;;;8.45;;
13801;SDS011;6972;51.518;6.918;2023-08-20T09:04:58;15.40;;;9.90;;
13801;SDS011;6972;51.518;6.918;2023-08-20T09:07:24;13.02;;;9.38;;
13801;SDS011;6972;51.518;6.918;2023-08-20T09:09:50;12.25;;;7.88;;
13801;SDS011;6972;51.518;6.918;2023-08-20T09:12:17;12.65;;;8.15;;
13801;SDS011;6972;51.518;6.918;2023-08-20T09:14:45;15.07;;;8.43;;
13801;SDS011;6972;51.518;6.918;2023-08-20T09:17:12;10.00;;;7.47;;
13801;SDS011;6972;51.518;6.918;2023-08-20T09:19:38;9.98;;;8.05;;
13801;SDS011;6972;51.518;6.918;2023-08-20T09:22:04;8.25;;;7.45;;
13801;SDS011;6972;51.518;6.918;2023-08-20T09:24:34;12.25;;;8.60;;
13801;SDS011;6972;51.518;6.918;2023-08-20T09:27:02;13.55;;;9.27;;
13801;SDS011;6972;51.518;6.918;2023-08-20T09:29:31;14.13;;;9.05;;
13801;SDS011;6972;51.518;6.918;2023-08-20T09:32:01;12.23;;;9.32;;
13801;SDS011;6972;51.518;6.918;2023-08-20T09:34:37;18.52;;;9.60;;
13801;SDS011;6972;51.518;6.918;2023-08-20T09:37:07;12.50;;;9.80;;
13801;SDS011;6972;51.518;6.918;2023-08-20T09:39:36;17.15;;;10.38;;
13801;SDS011;6972;51.518;6.918;2023-08-20T09:42:03;13.40;;;10.50;;
13801;SDS011;6972;51.518;6.918;2023-08-20T09:44:32;13.80;;;9.95;;
13801;SDS011;6972;51.518;6.918;2023-08-20T09:46:59;15.13;;;9.90;;
13801;SDS011;6972;51.518;6.918;2023-08-20T09:49:26;17.10;;;12.38;;
13801;SDS011;6972;51.518;6.918;2023-08-20T09:51:56;17.45;;;13.60;;
13801;SDS011;6972;51.518;6.918;2023-08-20T09:57:00;15.75;;;13.85;;
13801;SDS011;6972;51.518;6.918;2023-08-20T09:59:27;18.58;;;13.20;;
13801;SDS011;6972;51.518;6.918;2023-08-20T10:01:54;17.25;;;12.20;;
13801;SDS011;6972;51.518;6.918;2023-08-20T10:04:20;19.70;;;12.07;;
13801;SDS011;6972;51.518;6.918;2023-08-20T10:06:47;16.40;;;11.77;;
13801;SDS011;6972;51.518;6.918;2023-08-20T10:09:13;18.35;;;11.25;;
13801;SDS011;6972;51.518;6.918;2023-08-20T10:11:39;16.08;;;11.13;;
13801;SDS011;6972;51.518;6.918;2023-08-20T10:14:06;17.48;;;12.63;;
13801;SDS011;6972;51.518;6.918;2023-08-20T10:16:35;17.20;;;11.50;;
13801;SDS011;6972;51.518;6.918;2023-08-20T10:19:01;14.98;;;12.27;;
13801;SDS011;6972;51.518;6.918;2023-08-20T10:21:28;20.73;;;13.40;;
13801;SDS011;6972;51.518;6.918;2023-08-20T10:23:54;18.52;;;14.10;;
13801;SDS011;6972;51.518;6.918;2023-08-20T10:26:20;18.95;;;14.43;;
13801;SDS011;6972;51.518;6.918;2023-08-20T10:28:49;17.65;;;13.88;;
13801;SDS011;6972;51.518;6.918;2023-08-20T10:31:16;17.63;;;12.95;;
13801;SDS011;6972;51.518;6.918;2023-08-20T10:33:49;16.38;;;11.95;;
13801;SDS011;6972;51.518;6.918;2023-08-20T10:38:42;11.30;;;10.02;;
13801;SDS011;6972;51.518;6.918;2023-08-20T10:41:10;13.45;;;8.85;;
13801;SDS011;6972;51.518;6.918;2023-08-20T10:43:40;12.35;;;8.32;;
13801;SDS011;6972;51.518;6.918;2023-08-20T10:46:21;10.40;;;8.55;;
13801;SDS011;6972;51.518;6.918;2023-08-20T10:56:47;12.27;;;9.02;;
13801;SDS011;6972;51.518;6.918;2023-08-20T10:59:14;9.32;;;7.97;;
13801;SDS011;6972;51.518;6.918;2023-08-20T11:01:44;14.15;;;8.15;;
13801;SDS011;6972;51.518;6.918;2023-08-20T11:04:11;13.73;;;8.43;;
13801;SDS011;6972;51.518;6.918;2023-08-20T11:06:37;10.45;;;8.13;;
13801;SDS011;6972;51.518;6.918;2023-08-20T11:09:04;10.27;;;5.88;;
13801;SDS011;6972;51.518;6.918;2023-08-20T11:11:31;6.72;;;5.35;;
13801;SDS011;6972;51.518;6.918;2023-08-20T11:13:57;5.88;;;5.03;;
13801;SDS011;6972;51.518;6.918;2023-08-20T11:16:24;5.65;;;4.07;;
13801;SDS011;6972;51.518;6.918;2023-08-20T11:18:51;4.05;;;3.22;;
13801;SDS011;6972;51.518;6.918;2023-08-20T11:21:18;5.68;;;3.63;;
13801;SDS011;6972;51.518;6.918;2023-08-20T11:23:45;8.43;;;4.45;;
13801;SDS011;6972;51.518;6.918;2023-08-20T11:26:12;9.43;;;5.65;;
13801;SDS011;6972;51.518;6.918;2023-08-20T11:28:38;8.88;;;5.70;;
13801;SDS011;6972;51.518;6.918;2023-08-20T11:31:04;10.32;;;6.22;;
13801;SDS011;6972;51.518;6.918;2023-08-20T11:33:30;10.25;;;5.22;;
13801;SDS011;6972;51.518;6.918;2023-08-20T11:35:56;8.13;;;5.28;;
13801;SDS011;6972;51.518;6.918;2023-08-20T11:38:23;8.75;;;4.53;;
13801;SDS011;6972;51.518;6.918;2023-08-20T11:40:50;7.05;;;5.03;;
13801;SDS011;6972;51.518;6.918;2023-08-20T11:43:16;11.23;;;5.38;;
13801;SDS011;6972;51.518;6.918;2023-08-20T11:45:46;4.97;;;3.88;;
13801;SDS011;6972;51.518;6.918;2023-08-20T11:48:13;4.82;;;3.30;;
13801;SDS011;6972;51.518;6.918;2023-08-20T11:50:39;5.15;;;3.30;;
13801;SDS011;6972;51.518;6.918;2023-08-20T11:53:06;5.50;;;3.90;;
13801;SDS011;6972;51.518;6.918;2023-08-20T11:55:35;4.40;;;3.58;;
13801;SDS011;6972;51.518;6.918;2023-08-20T11:58:01;5.22;;;3.53;;
13801;SDS011;6972;51.518;6.918;2023-08-20T12:00:27;8.27;;;3.65;;
13801;SDS011;6972;51.518;6.918;2023-08-20T12:02:54;6.63;;;3.85;;
13801;SDS011;6972;51.518;6.918;2023-08-20T12:05:20;5.60;;;3.80;;
13801;SDS011;6972;51.518;6.918;2023-08-20T12:07:57;8.02;;;3.80;;
13801;SDS011;6972;51.518;6.918;2023-08-20T12:10:24;6.03;;;4.75;;
13801;SDS011;6972;51.518;6.918;2023-08-20T12:12:50;5.72;;;4.75;;
13801;SDS011;6972;51.518;6.918;2023-08-20T12:15:17;9.55;;;3.60;;
13801;SDS011;6972;51.518;6.918;2023-08-20T12:17:54;4.88;;;2.97;;
13801;SDS011;6972;51.518;6.918;2023-08-20T12:20:20;6.95;;;3.30;;
13801;SDS011;6972;51.518;6.918;2023-08-20T12:22:46;7.25;;;3.35;;
13801;SDS011;6972;51.518;6.918;2023-08-20T12:25:12;6.03;;;3.17;;
13801;SDS011;6972;51.518;6.918;2023-08-20T12:27:38;6.00;;;3.08;;
13801;SDS011;6972;51.518;6.918;2023-08-20T12:30:05;5.65;;;3.00;;
13801;SDS011;6972;51.518;6.918;2023-08-20T12:32:32;4.57;;;2.83;;
13801;SDS011;6972;51.518;6.918;2023-08-20T12:34:58;5.00;;;2.50;;
13801;SDS011;6972;51.518;6.918;2023-08-20T12:37:24;4.60;;;2.63;;
13801;SDS011;6972;51.518;6.918;2023-08-20T12:39:50;3.90;;;2.40;;
13801;SDS011;6972;51.518;6.918;2023-08-20T12:42:16;7.70;;;3.00;;
13801;SDS011;6972;51.518;6.918;2023-08-20T12:44:42;5.35;;;2.72;;
13801;SDS011;6972;51.518;6.918;2023-08-20T12:47:08;7.43;;;2.92;;
13801;SDS011;6972;51.518;6.918;2023-08-20T12:49:34;7.85;;;3.05;;
13801;SDS011;6972;51.518;6.918;2023-08-20T12:52:00;4.75;;;2.50;;
13801;SDS011;6972;51.518;6.918;2023-08-20T12:54:26;6.45;;;2.63;;
13801;SDS011;6972;51.518;6.918;2023-08-20T12:56:52;4.68;;;2.40;;
13801;SDS011;6972;51.518;6.918;2023-08-20T12:59:19;5.18;;;2.42;;
13801;SDS011;6972;51.518;6.918;2023-08-20T13:01:45;5.65;;;2.58;;
13801;SDS011;6972;51.518;6.918;2023-08-20T13:04:12;5.03;;;2.88;;
13801;SDS011;6972;51.518;6.918;2023-08-20T13:06:38;6.18;;;2.70;;
13801;SDS011;6972;51.518;6.918;2023-08-20T13:09:05;4.78;;;2.40;;
13801;SDS011;6972;51.518;6.918;2023-08-20T13:11:34;5.85;;;2.42;;
13801;SDS011;6972;51.518;6.918;2023-08-20T13:14:01;6.28;;;2.50;;
13801;SDS011;6972;51.518;6.918;2023-08-20T13:16:28;5.82;;;2.50;;
13801;SDS011;6972;51.518;6.918;2023-08-20T13:18:54;4.95;;;2.40;;
13801;SDS011;6972;51.518;6.918;2023-08-20T13:21:20;4.53;;;2.22;;
13801;SDS011;6972;51.518;6.918;2023-08-20T13:23:46;4.90;;;2.00;;
13801;SDS011;6972;51.518;6.918;2023-08-20T13:26:12;4.57;;;2.20;;
13801;SDS011;6972;51.518;6.918;2023-08-20T13:28:38;6.28;;;2.20;;
13801;SDS011;6972;51.518;6.918;2023-08-20T13:31:04;5.97;;;2.00;;
13801;SDS011;6972;51.518;6.918;2023-08-20T13:33:30;4.88;;;2.53;;
13801;SDS011;6972;51.518;6.918;2023-08-20T13:35:56;5.40;;;2.60;;
13801;SDS011;6972;51.518;6.918;2023-08-20T13:38:23;5.50;;;2.13;;
13801;SDS011;6972;51.518;6.918;2023-08-20T13:40:50;3.95;;;2.13;;
13801;SDS011;6972;51.518;6.918;2023-08-20T13:43:16;5.75;;;2.05;;
13801;SDS011;6972;51.518;6.918;2023-08-20T13:45:42;4.95;;;2.20;;
13801;SDS011;6972;51.518;6.918;2023-08-20T13:48:11;5.05;;;2.17;;
13801;SDS011;6972;51.518;6.918;2023-08-20T13:50:37;6.47;;;2.42;;
13801;SDS011;6972;51.518;6.918;2023-08-20T13:53:03;6.85;;;2.85;;
13801;SDS011;6972;51.518;6.918;2023-08-20T13:55:29;5.53;;;2.30;;
13801;SDS011;6972;51.518;6.918;2023-08-20T13:57:56;6.22;;;2.20;;
13801;SDS011;6972;51.518;6.918;2023-08-20T14:00:22;5.32;;;2.40;;
13801;SDS011;6972;51.518;6.918;2023-08-20T14:02:48;4.18;;;2.10;;
13801;SDS011;6972;51.518;6.918;2023-08-20T14:05:14;3.60;;;2.05;;
13801;SDS011;6972;51.518;6.918;2023-08-20T14:07:40;4.95;;;2.33;;
13801;SDS011;6972;51.518;6.918;2023-08-20T14:10:07;3.78;;;2.35;;
13801;SDS011;6972;51.518;6.918;2023-08-20T14:12:33;5.65;;;2.58;;
13801;SDS011;6972;51.518;6.918;2023-08-20T14:14:59;5.43;;;2.58;;
13801;SDS011;6972;51.518;6.918;2023-08-20T14:17:27;5.50;;;2.33;;
13801;SDS011;6972;51.518;6.918;2023-08-20T14:19:53;5.07;;;2.20;;
13801;SDS011;6972;51.518;6.918;2023-08-20T14:22:19;6.05;;;2.25;;
13801;SDS011;6972;51.518;6.918;2023-08-20T14:24:45;9.32;;;2.80;;
13801;SDS011;6972;51.518;6.918;2023-08-20T14:27:11;6.07;;;2.25;;
13801;SDS011;6972;51.518;6.918;2023-08-20T14:29:37;3.85;;;2.03;;
13801;SDS011;6972;51.518;6.918;2023-08-20T14:32:03;6.72;;;2.05;;
13801;SDS011;6972;51.518;6.918;2023-08-20T14:34:47;6.78;;;2.33;;
13801;SDS011;6972;51.518;6.918;2023-08-20T14:37:13;3.90;;;2.13;;
13801;SDS011;6972;51.518;6.918;2023-08-20T14:39:39;5.00;;;1.92;;
13801;SDS011;6972;51.518;6.918;2023-08-20T14:42:05;6.35;;;2.47;;
13801;SDS011;6972;51.518;6.918;2023-08-20T14:44:31;4.88;;;1.77;;
13801;SDS011;6972;51.518;6.918;2023-08-20T14:46:58;6.22;;;2.10;;
13801;SDS011;6972;51.518;6.918;2023-08-20T14:49:24;4.05;;;1.60;;
13801;SDS011;6972;51.518;6.918;2023-08-20T14:51:51;4.13;;;2.17;;
13801;SDS011;6972;51.518;6.918;2023-08-20T14:54:17;3.10;;;1.70;;
13801;SDS011;6972;51.518;6.918;2023-08-20T14:56:43;6.05;;;1.98;;
13801;SDS011;6972;51.518;6.918;2023-08-20T14:59:10;5.63;;;1.73;;
13801;SDS011;6972;51.518;6.918;2023-08-20T15:01:36;9.40;;;2.03;;
13801;SDS011;6972;51.518;6.918;2023-08-20T15:04:02;4.22;;;1.73;;
13801;SDS011;6972;51.518;6.918;2023-08-20T15:06:28;4.55;;;1.88;;